sensor_id;sensor_type;location;lat;lon;timestamp;temperature;humidity
25652;DHT22;13508;50.734;4.232;2023-10-09T00:02:20;16.50;99.90
25652;DHT22;13508;50.734;4.232;2023-10-09T00:05:23;16.60;99.90
25652;DHT22;13508;50.734;4.232;2023-10-09T00:08:32;16.40;99.90
25652;DHT22;13508;50.734;4.232;2023-10-09T00:11:38;16.50;99.90
25652;DHT22;13508;50.734;4.232;2023-10-09T00:14:44;16.50;99.90
25652;DHT22;13508;50.734;4.232;2023-10-09T00:17:51;16.50;99.90
25652;DHT22;13508;50.734;4.232;2023-10-09T00:20:56;16.60;99.90
25652;DHT22;13508;50.734;4.232;2023-10-09T00:24:14;16.60;99.90
25652;DHT22;13508;50.734;4.232;2023-10-09T00:27:42;16.60;99.90
25652;DHT22;13508;50.734;4.232;2023-10-09T00:30:47;16.60;99.90
25652;DHT22;13508;50.734;4.232;2023-10-09T00:33:51;16.70;99.90
25652;DHT22;13508;50.734;4.232;2023-10-09T00:36:58;16.60;99.90
25652;DHT22;13508;50.734;4.232;2023-10-09T00:40:07;16.70;99.90
25652;DHT22;13508;50.734;4.232;2023-10-09T00:43:25;16.80;99.90
25652;DHT22;13508;50.734;4.232;2023-10-09T00:46:33;16.70;99.90
25652;DHT22;13508;50.734;4.232;2023-10-09T00:49:46;16.60;99.90
25652;DHT22;13508;50.734;4.232;2023-10-09T00:52:54;16.80;99.90
25652;DHT22;13508;50.734;4.232;2023-10-09T00:56:04;16.80;99.90
25652;DHT22;13508;50.734;4.232;2023-10-09T00:59:33;16.80;99.90
25652;DHT22;13508;50.734;4.232;2023-10-09T01:02:40;17.10;99.90
25652;DHT22;13508;50.734;4.232;2023-10-09T01:05:51;17.00;99.90
25652;DHT22;13508;50.734;4.232;2023-10-09T01:09:17;17.00;99.90
25652;DHT22;13508;50.734;4.232;2023-10-09T01:12:22;17.00;99.90
25652;DHT22;13508;50.734;4.232;2023-10-09T01:15:26;17.00;99.90
25652;DHT22;13508;50.734;4.232;2023-10-09T01:18:49;17.00;99.90
25652;DHT22;13508;50.734;4.232;2023-10-09T01:21:53;16.80;99.90
25652;DHT22;13508;50.734;4.232;2023-10-09T01:24:59;16.90;99.90
25652;DHT22;13508;50.734;4.232;2023-10-09T01:28:03;17.00;99.90
25652;DHT22;13508;50.734;4.232;2023-10-09T01:31:07;17.00;99.90
25652;DHT22;13508;50.734;4.232;2023-10-09T01:34:12;17.10;99.90
25652;DHT22;13508;50.734;4.232;2023-10-09T01:37:17;17.10;99.90
25652;DHT22;13508;50.734;4.232;2023-10-09T01:40:31;17.00;99.90
25652;DHT22;13508;50.734;4.232;2023-10-09T01:43:40;17.00;99.90
25652;DHT22;13508;50.734;4.232;2023-10-09T01:46:47;16.90;99.90
25652;DHT22;13508;50.734;4.232;2023-10-09T01:49:51;16.60;99.90
25652;DHT22;13508;50.734;4.232;2023-10-09T01:52:57;16.50;99.90
25652;DHT22;13508;50.734;4.232;2023-10-09T01:56:10;16.40;99.90
25652;DHT22;13508;50.734;4.232;2023-10-09T01:59:18;16.40;99.90
25652;DHT22;13508;50.734;4.232;2023-10-09T02:02:27;16.20;99.90
25652;DHT22;13508;50.734;4.232;2023-10-09T02:05:36;16.20;99.90
25652;DHT22;13508;50.734;4.232;2023-10-09T02:08:40;16.40;99.90
25652;DHT22;13508;50.734;4.232;2023-10-09T02:11:52;16.30;99.90
25652;DHT22;13508;50.734;4.232;2023-10-09T02:14:58;16.40;99.90
25652;DHT22;13508;50.734;4.232;2023-10-09T02:18:01;16.50;99.90
25652;DHT22;13508;50.734;4.232;2023-10-09T02:21:19;16.50;99.90
25652;DHT22;13508;50.734;4.232;2023-10-09T02:24:54;16.20;99.90
25652;DHT22;13508;50.734;4.232;2023-10-09T02:28:08;16.30;99.90
25652;DHT22;13508;50.734;4.232;2023-10-09T02:31:12;16.50;99.90
25652;DHT22;13508;50.734;4.232;2023-10-09T02:34:19;16.60;99.90
25652;DHT22;13508;50.734;4.232;2023-10-09T02:37:27;16.50;99.90
25652;DHT22;13508;50.734;4.232;2023-10-09T02:40:33;16.50;99.90
25652;DHT22;13508;50.734;4.232;2023-10-09T02:43:46;16.60;99.90
25652;DHT22;13508;50.734;4.232;2023-10-09T02:46:53;16.60;99.90
25652;DHT22;13508;50.734;4.232;2023-10-09T02:50:01;16.50;99.90
25652;DHT22;13508;50.734;4.232;2023-10-09T02:53:09;16.40;99.90
25652;DHT22;13508;50.734;4.232;2023-10-09T02:56:12;16.60;99.90
25652;DHT22;13508;50.734;4.232;2023-10-09T02:59:17;16.60;99.90
25652;DHT22;13508;50.734;4.232;2023-10-09T03:02:27;16.40;99.90
25652;DHT22;13508;50.734;4.232;2023-10-09T03:05:35;16.30;99.90
25652;DHT22;13508;50.734;4.232;2023-10-09T03:08:41;16.50;99.90
25652;DHT22;13508;50.734;4.232;2023-10-09T03:11:49;16.50;99.90
25652;DHT22;13508;50.734;4.232;2023-10-09T03:15:13;16.50;99.90
25652;DHT22;13508;50.734;4.232;2023-10-09T03:18:16;16.30;99.90
25652;DHT22;13508;50.734;4.232;2023-10-09T03:21:20;16.10;99.90
25652;DHT22;13508;50.734;4.232;2023-10-09T03:24:25;16.00;99.90
25652;DHT22;13508;50.734;4.232;2023-10-09T03:27:30;16.10;99.90
25652;DHT22;13508;50.734;4.232;2023-10-09T03:30:34;16.10;99.90
25652;DHT22;13508;50.734;4.232;2023-10-09T03:33:40;16.00;99.90
25652;DHT22;13508;50.734;4.232;2023-10-09T03:36:46;16.10;99.90
25652;DHT22;13508;50.734;4.232;2023-10-09T03:39:54;15.90;99.90
25652;DHT22;13508;50.734;4.232;2023-10-09T03:42:58;15.80;99.90
25652;DHT22;13508;50.734;4.232;2023-10-09T03:46:05;15.90;99.90
25652;DHT22;13508;50.734;4.232;2023-10-09T03:49:08;16.00;99.90
25652;DHT22;13508;50.734;4.232;2023-10-09T03:52:14;16.10;99.90
25652;DHT22;13508;50.734;4.232;2023-10-09T03:55:20;16.10;99.90
25652;DHT22;13508;50.734;4.232;2023-10-09T03:58:25;15.90;99.90
25652;DHT22;13508;50.734;4.232;2023-10-09T04:01:34;15.80;99.90
25652;DHT22;13508;50.734;4.232;2023-10-09T04:04:44;15.80;99.90
25652;DHT22;13508;50.734;4.232;2023-10-09T04:07:50;15.80;99.90
25652;DHT22;13508;50.734;4.232;2023-10-09T04:10:56;15.70;99.90
25652;DHT22;13508;50.734;4.232;2023-10-09T04:14:09;15.80;99.90
25652;DHT22;13508;50.734;4.232;2023-10-09T04:17:27;15.90;99.90
25652;DHT22;13508;50.734;4.232;2023-10-09T04:20:33;16.00;99.90
25652;DHT22;13508;50.734;4.232;2023-10-09T04:23:36;16.10;99.90
25652;DHT22;13508;50.734;4.232;2023-10-09T04:26:59;16.00;99.90
25652;DHT22;13508;50.734;4.232;2023-10-09T04:30:06;15.80;99.90
25652;DHT22;13508;50.734;4.232;2023-10-09T04:33:10;15.80;99.90
25652;DHT22;13508;50.734;4.232;2023-10-09T04:36:46;15.90;99.90
25652;DHT22;13508;50.734;4.232;2023-10-09T04:39:52;15.80;99.90
25652;DHT22;13508;50.734;4.232;2023-10-09T04:43:18;15.70;99.90
25652;DHT22;13508;50.734;4.232;2023-10-09T04:46:25;15.70;99.90
25652;DHT22;13508;50.734;4.232;2023-10-09T04:49:29;15.90;99.90
25652;DHT22;13508;50.734;4.232;2023-10-09T04:52:38;16.00;99.90
25652;DHT22;13508;50.734;4.232;2023-10-09T04:55:42;16.00;99.90
25652;DHT22;13508;50.734;4.232;2023-10-09T04:58:56;16.00;99.90
25652;DHT22;13508;50.734;4.232;2023-10-09T05:02:06;15.90;99.90
25652;DHT22;13508;50.734;4.232;2023-10-09T05:05:27;15.80;99.90
25652;DHT22;13508;50.734;4.232;2023-10-09T05:08:46;15.80;99.90
25652;DHT22;13508;50.734;4.232;2023-10-09T05:11:51;15.90;99.90
25652;DHT22;13508;50.734;4.232;2023-10-09T05:14:53;15.80;99.90
25652;DHT22;13508;50.734;4.232;2023-10-09T05:18:16;15.60;99.90
25652;DHT22;13508;50.734;4.232;2023-10-09T05:21:19;15.60;99.90
25652;DHT22;13508;50.734;4.232;2023-10-09T05:24:36;15.50;99.90
25652;DHT22;13508;50.734;4.232;2023-10-09T05:27:50;15.60;99.90
25652;DHT22;13508;50.734;4.232;2023-10-09T05:31:15;15.60;99.90
25652;DHT22;13508;50.734;4.232;2023-10-09T05:34:57;15.50;99.90
25652;DHT22;13508;50.734;4.232;2023-10-09T05:38:06;15.50;99.90
25652;DHT22;13508;50.734;4.232;2023-10-09T05:41:18;15.70;99.90
25652;DHT22;13508;50.734;4.232;2023-10-09T05:44:44;15.60;99.90
25652;DHT22;13508;50.734;4.232;2023-10-09T05:48:19;15.60;99.90
25652;DHT22;13508;50.734;4.232;2023-10-09T05:51:22;15.70;99.90
25652;DHT22;13508;50.734;4.232;2023-10-09T05:54:58;15.50;99.90
25652;DHT22;13508;50.734;4.232;2023-10-09T05:58:22;15.60;99.90
25652;DHT22;13508;50.734;4.232;2023-10-09T06:01:44;15.50;99.90
25652;DHT22;13508;50.734;4.232;2023-10-09T06:04:53;15.70;99.90
25652;DHT22;13508;50.734;4.232;2023-10-09T06:07:57;15.70;99.90
25652;DHT22;13508;50.734;4.232;2023-10-09T06:11:11;15.70;99.90
25652;DHT22;13508;50.734;4.232;2023-10-09T06:14:34;15.70;99.90
25652;DHT22;13508;50.734;4.232;2023-10-09T06:17:37;15.50;99.90
25652;DHT22;13508;50.734;4.232;2023-10-09T06:20:49;15.30;99.90
25652;DHT22;13508;50.734;4.232;2023-10-09T06:24:11;15.30;99.90
25652;DHT22;13508;50.734;4.232;2023-10-09T06:27:17;15.30;99.90
25652;DHT22;13508;50.734;4.232;2023-10-09T06:30:32;15.30;99.90
25652;DHT22;13508;50.734;4.232;2023-10-09T06:33:47;15.30;99.90
25652;DHT22;13508;50.734;4.232;2023-10-09T06:37:09;15.20;99.90
25652;DHT22;13508;50.734;4.232;2023-10-09T06:40:32;15.40;99.90
25652;DHT22;13508;50.734;4.232;2023-10-09T06:43:54;15.80;99.90
25652;DHT22;13508;50.734;4.232;2023-10-09T06:46:58;15.90;99.90
25652;DHT22;13508;50.734;4.232;2023-10-09T06:50:11;15.90;99.90
25652;DHT22;13508;50.734;4.232;2023-10-09T06:53:26;16.00;99.90
25652;DHT22;13508;50.734;4.232;2023-10-09T06:56:49;16.20;99.90
25652;DHT22;13508;50.734;4.232;2023-10-09T07:00:15;16.30;99.90
25652;DHT22;13508;50.734;4.232;2023-10-09T07:03:38;16.10;99.90
25652;DHT22;13508;50.734;4.232;2023-10-09T07:06:55;16.00;99.90
25652;DHT22;13508;50.734;4.232;2023-10-09T07:10:05;16.30;99.90
25652;DHT22;13508;50.734;4.232;2023-10-09T07:13:27;16.30;99.90
25652;DHT22;13508;50.734;4.232;2023-10-09T07:16:40;16.20;99.90
25652;DHT22;13508;50.734;4.232;2023-10-09T07:20:02;16.20;99.90
25652;DHT22;13508;50.734;4.232;2023-10-09T07:23:26;16.30;99.90
25652;DHT22;13508;50.734;4.232;2023-10-09T07:26:35;16.40;99.90
25652;DHT22;13508;50.734;4.232;2023-10-09T07:29:50;16.40;99.90
25652;DHT22;13508;50.734;4.232;2023-10-09T07:32:58;16.40;99.90
25652;DHT22;13508;50.734;4.232;2023-10-09T07:36:13;16.50;99.90
25652;DHT22;13508;50.734;4.232;2023-10-09T07:39:17;16.70;99.90
25652;DHT22;13508;50.734;4.232;2023-10-09T07:42:21;16.90;99.90
25652;DHT22;13508;50.734;4.232;2023-10-09T07:45:46;16.90;99.90
25652;DHT22;13508;50.734;4.232;2023-10-09T07:48:53;16.70;99.90
25652;DHT22;13508;50.734;4.232;2023-10-09T07:52:01;16.80;99.90
25652;DHT22;13508;50.734;4.232;2023-10-09T07:55:04;16.90;99.90
25652;DHT22;13508;50.734;4.232;2023-10-09T07:58:28;16.90;99.90
25652;DHT22;13508;50.734;4.232;2023-10-09T08:01:33;16.90;99.90
25652;DHT22;13508;50.734;4.232;2023-10-09T08:04:42;17.30;99.90
25652;DHT22;13508;50.734;4.232;2023-10-09T08:07:52;17.80;99.90
25652;DHT22;13508;50.734;4.232;2023-10-09T08:11:00;17.80;99.90
25652;DHT22;13508;50.734;4.232;2023-10-09T08:14:22;17.70;99.90
25652;DHT22;13508;50.734;4.232;2023-10-09T08:17:26;17.40;99.90
25652;DHT22;13508;50.734;4.232;2023-10-09T08:20:34;17.60;99.90
25652;DHT22;13508;50.734;4.232;2023-10-09T08:23:56;17.80;99.90
25652;DHT22;13508;50.734;4.232;2023-10-09T08:27:01;17.50;99.90
25652;DHT22;13508;50.734;4.232;2023-10-09T08:30:26;17.50;99.90
25652;DHT22;13508;50.734;4.232;2023-10-09T08:33:30;17.70;99.90
25652;DHT22;13508;50.734;4.232;2023-10-09T08:36:46;17.80;99.90
25652;DHT22;13508;50.734;4.232;2023-10-09T08:39:55;17.40;99.90
25652;DHT22;13508;50.734;4.232;2023-10-09T08:43:19;17.50;99.90
25652;DHT22;13508;50.734;4.232;2023-10-09T08:46:25;17.80;99.90
25652;DHT22;13508;50.734;4.232;2023-10-09T08:49:32;17.70;99.90
25652;DHT22;13508;50.734;4.232;2023-10-09T08:52:37;17.70;99.90
25652;DHT22;13508;50.734;4.232;2023-10-09T08:55:43;17.90;99.90
25652;DHT22;13508;50.734;4.232;2023-10-09T08:58:54;18.10;99.90
25652;DHT22;13508;50.734;4.232;2023-10-09T09:02:00;18.20;99.90
25652;DHT22;13508;50.734;4.232;2023-10-09T09:05:23;17.80;99.90
25652;DHT22;13508;50.734;4.232;2023-10-09T09:08:32;18.20;99.90
25652;DHT22;13508;50.734;4.232;2023-10-09T09:11:43;18.00;99.90
25652;DHT22;13508;50.734;4.232;2023-10-09T09:14:52;18.00;99.90
25652;DHT22;13508;50.734;4.232;2023-10-09T09:18:07;18.30;99.90
25652;DHT22;13508;50.734;4.232;2023-10-09T09:21:18;18.70;99.90
25652;DHT22;13508;50.734;4.232;2023-10-09T09:24:27;18.90;99.90
25652;DHT22;13508;50.734;4.232;2023-10-09T09:27:46;19.20;99.90
25652;DHT22;13508;50.734;4.232;2023-10-09T09:31:28;19.40;99.90
25652;DHT22;13508;50.734;4.232;2023-10-09T09:34:46;19.30;99.90
25652;DHT22;13508;50.734;4.232;2023-10-09T09:37:54;19.10;99.90
25652;DHT22;13508;50.734;4.232;2023-10-09T09:40:57;19.20;99.90
25652;DHT22;13508;50.734;4.232;2023-10-09T09:44:05;19.30;99.90
25652;DHT22;13508;50.734;4.232;2023-10-09T09:47:12;19.40;99.90
25652;DHT22;13508;50.734;4.232;2023-10-09T09:50:19;19.50;99.90
25652;DHT22;13508;50.734;4.232;2023-10-09T09:53:32;19.80;99.90
25652;DHT22;13508;50.734;4.232;2023-10-09T09:56:40;20.00;99.90
25652;DHT22;13508;50.734;4.232;2023-10-09T09:59:45;19.50;99.90
25652;DHT22;13508;50.734;4.232;2023-10-09T10:03:03;19.40;99.90
25652;DHT22;13508;50.734;4.232;2023-10-09T10:06:09;19.40;99.90
25652;DHT22;13508;50.734;4.232;2023-10-09T10:09:49;19.30;99.90
25652;DHT22;13508;50.734;4.232;2023-10-09T10:12:57;19.10;99.90
25652;DHT22;13508;50.734;4.232;2023-10-09T10:16:06;19.00;99.90
25652;DHT22;13508;50.734;4.232;2023-10-09T10:19:22;19.10;99.90
25652;DHT22;13508;50.734;4.232;2023-10-09T10:22:27;19.60;99.90
25652;DHT22;13508;50.734;4.232;2023-10-09T10:25:34;19.60;99.90
25652;DHT22;13508;50.734;4.232;2023-10-09T10:29:17;19.90;99.90
25652;DHT22;13508;50.734;4.232;2023-10-09T10:32:59;20.10;99.90
25652;DHT22;13508;50.734;4.232;2023-10-09T10:36:12;20.10;99.90
25652;DHT22;13508;50.734;4.232;2023-10-09T10:39:26;20.70;99.90
25652;DHT22;13508;50.734;4.232;2023-10-09T10:42:57;22.10;99.90
25652;DHT22;13508;50.734;4.232;2023-10-09T10:46:14;21.80;99.90
25652;DHT22;13508;50.734;4.232;2023-10-09T10:49:28;21.50;99.90
25652;DHT22;13508;50.734;4.232;2023-10-09T10:52:41;21.70;99.90
25652;DHT22;13508;50.734;4.232;2023-10-09T10:55:59;21.90;99.90
25652;DHT22;13508;50.734;4.232;2023-10-09T10:59:39;22.40;99.90
25652;DHT22;13508;50.734;4.232;2023-10-09T11:02:45;22.80;99.90
25652;DHT22;13508;50.734;4.232;2023-10-09T11:05:51;22.20;99.90
25652;DHT22;13508;50.734;4.232;2023-10-09T11:08:54;21.40;99.90
25652;DHT22;13508;50.734;4.232;2023-10-09T11:12:04;21.20;99.90
25652;DHT22;13508;50.734;4.232;2023-10-09T11:15:35;21.50;99.90
25652;DHT22;13508;50.734;4.232;2023-10-09T11:19:12;21.80;99.90
25652;DHT22;13508;50.734;4.232;2023-10-09T11:22:26;21.60;99.90
25652;DHT22;13508;50.734;4.232;2023-10-09T11:25:51;21.30;99.90
25652;DHT22;13508;50.734;4.232;2023-10-09T11:29:12;21.40;99.90
25652;DHT22;13508;50.734;4.232;2023-10-09T11:32:19;21.60;99.90
25652;DHT22;13508;50.734;4.232;2023-10-09T11:35:28;21.70;99.90
25652;DHT22;13508;50.734;4.232;2023-10-09T11:38:38;21.40;99.90
25652;DHT22;13508;50.734;4.232;2023-10-09T11:41:42;21.40;99.90
25652;DHT22;13508;50.734;4.232;2023-10-09T11:44:46;21.40;99.90
25652;DHT22;13508;50.734;4.232;2023-10-09T11:48:16;21.70;99.90
25652;DHT22;13508;50.734;4.232;2023-10-09T11:51:40;21.60;99.90
25652;DHT22;13508;50.734;4.232;2023-10-09T11:55:05;21.80;99.90
25652;DHT22;13508;50.734;4.232;2023-10-09T11:58:18;21.70;99.90
25652;DHT22;13508;50.734;4.232;2023-10-09T12:01:28;21.60;99.90
25652;DHT22;13508;50.734;4.232;2023-10-09T12:04:39;21.90;99.90
25652;DHT22;13508;50.734;4.232;2023-10-09T12:07:47;22.00;99.90
25652;DHT22;13508;50.734;4.232;2023-10-09T12:10:58;22.10;99.90
25652;DHT22;13508;50.734;4.232;2023-10-09T12:14:04;22.30;99.90
25652;DHT22;13508;50.734;4.232;2023-10-09T12:17:10;22.40;99.90
25652;DHT22;13508;50.734;4.232;2023-10-09T12:20:14;22.20;99.90
25652;DHT22;13508;50.734;4.232;2023-10-09T12:23:33;22.10;99.90
25652;DHT22;13508;50.734;4.232;2023-10-09T12:26:40;22.20;99.90
25652;DHT22;13508;50.734;4.232;2023-10-09T12:29:46;22.40;99.90
25652;DHT22;13508;50.734;4.232;2023-10-09T12:32:53;22.10;99.90
25652;DHT22;13508;50.734;4.232;2023-10-09T12:35:57;22.20;99.90
25652;DHT22;13508;50.734;4.232;2023-10-09T12:39:06;22.50;99.90
25652;DHT22;13508;50.734;4.232;2023-10-09T12:42:24;22.80;99.90
25652;DHT22;13508;50.734;4.232;2023-10-09T12:45:28;23.10;99.90
25652;DHT22;13508;50.734;4.232;2023-10-09T12:48:36;22.90;99.90
25652;DHT22;13508;50.734;4.232;2023-10-09T12:51:40;22.60;99.90
25652;DHT22;13508;50.734;4.232;2023-10-09T12:54:46;22.50;99.90
25652;DHT22;13508;50.734;4.232;2023-10-09T12:57:51;22.80;99.90
25652;DHT22;13508;50.734;4.232;2023-10-09T13:00:55;22.10;99.90
25652;DHT22;13508;50.734;4.232;2023-10-09T13:04:01;21.90;99.90
25652;DHT22;13508;50.734;4.232;2023-10-09T13:07:14;22.30;99.90
25652;DHT22;13508;50.734;4.232;2023-10-09T13:10:28;22.30;99.90
25652;DHT22;13508;50.734;4.232;2023-10-09T13:13:34;22.20;99.90
25652;DHT22;13508;50.734;4.232;2023-10-09T13:16:49;22.00;99.90
25652;DHT22;13508;50.734;4.232;2023-10-09T13:19:53;22.20;99.90
25652;DHT22;13508;50.734;4.232;2023-10-09T13:23:00;22.30;99.90
25652;DHT22;13508;50.734;4.232;2023-10-09T13:26:07;22.40;99.90
25652;DHT22;13508;50.734;4.232;2023-10-09T13:29:35;22.10;99.90
25652;DHT22;13508;50.734;4.232;2023-10-09T13:32:45;21.90;99.90
25652;DHT22;13508;50.734;4.232;2023-10-09T13:35:51;22.10;99.90
25652;DHT22;13508;50.734;4.232;2023-10-09T13:39:00;22.00;99.90
25652;DHT22;13508;50.734;4.232;2023-10-09T13:42:23;21.90;99.90
25652;DHT22;13508;50.734;4.232;2023-10-09T13:45:31;21.90;99.90
25652;DHT22;13508;50.734;4.232;2023-10-09T13:48:39;21.80;99.90
25652;DHT22;13508;50.734;4.232;2023-10-09T13:51:43;21.90;99.90
25652;DHT22;13508;50.734;4.232;2023-10-09T13:54:47;22.20;99.90
25652;DHT22;13508;50.734;4.232;2023-10-09T13:57:54;22.30;99.90
25652;DHT22;13508;50.734;4.232;2023-10-09T14:01:00;22.20;99.90
25652;DHT22;13508;50.734;4.232;2023-10-09T14:04:04;22.30;99.90
25652;DHT22;13508;50.734;4.232;2023-10-09T14:07:09;22.20;99.90
25652;DHT22;13508;50.734;4.232;2023-10-09T14:13:06;22.10;99.90
25652;DHT22;13508;50.734;4.232;2023-10-09T14:16:24;21.90;99.90
25652;DHT22;13508;50.734;4.232;2023-10-09T14:19:31;22.10;99.90
25652;DHT22;13508;50.734;4.232;2023-10-09T14:22:40;22.00;99.90
25652;DHT22;13508;50.734;4.232;2023-10-09T14:25:44;22.00;99.90
25652;DHT22;13508;50.734;4.232;2023-10-09T14:28:54;22.10;99.90
25652;DHT22;13508;50.734;4.232;2023-10-09T14:31:59;21.90;99.90
25652;DHT22;13508;50.734;4.232;2023-10-09T14:35:03;21.90;99.90
25652;DHT22;13508;50.734;4.232;2023-10-09T14:38:16;21.90;99.90
25652;DHT22;13508;50.734;4.232;2023-10-09T14:41:25;22.00;99.90
25652;DHT22;13508;50.734;4.232;2023-10-09T14:44:30;22.10;99.90
25652;DHT22;13508;50.734;4.232;2023-10-09T14:47:36;22.10;99.90
25652;DHT22;13508;50.734;4.232;2023-10-09T14:50:49;21.80;99.90
25652;DHT22;13508;50.734;4.232;2023-10-09T14:53:54;21.70;99.90
25652;DHT22;13508;50.734;4.232;2023-10-09T14:57:00;21.70;99.90
25652;DHT22;13508;50.734;4.232;2023-10-09T15:00:04;21.50;99.90
25652;DHT22;13508;50.734;4.232;2023-10-09T15:05:58;21.60;99.90
25652;DHT22;13508;50.734;4.232;2023-10-09T15:09:02;21.80;99.90
25652;DHT22;13508;50.734;4.232;2023-10-09T15:12:12;21.80;99.90
25652;DHT22;13508;50.734;4.232;2023-10-09T15:15:16;21.90;99.90
25652;DHT22;13508;50.734;4.232;2023-10-09T15:18:20;21.80;99.90
25652;DHT22;13508;50.734;4.232;2023-10-09T15:21:28;21.90;99.90
25652;DHT22;13508;50.734;4.232;2023-10-09T15:24:35;21.90;99.90
25652;DHT22;13508;50.734;4.232;2023-10-09T15:27:40;21.90;99.90
25652;DHT22;13508;50.734;4.232;2023-10-09T15:30:43;21.70;99.90
25652;DHT22;13508;50.734;4.232;2023-10-09T15:33:48;21.90;99.90
25652;DHT22;13508;50.734;4.232;2023-10-09T15:36:54;21.90;99.90
25652;DHT22;13508;50.734;4.232;2023-10-09T15:39:58;21.80;99.90
25652;DHT22;13508;50.734;4.232;2023-10-09T15:43:07;21.80;99.90
25652;DHT22;13508;50.734;4.232;2023-10-09T15:46:16;22.00;99.90
25652;DHT22;13508;50.734;4.232;2023-10-09T15:49:19;21.90;99.90
25652;DHT22;13508;50.734;4.232;2023-10-09T15:52:23;21.90;99.90
25652;DHT22;13508;50.734;4.232;2023-10-09T15:55:29;21.90;99.90
25652;DHT22;13508;50.734;4.232;2023-10-09T15:58:33;21.70;99.90
25652;DHT22;13508;50.734;4.232;2023-10-09T16:01:36;21.70;99.90
25652;DHT22;13508;50.734;4.232;2023-10-09T16:04:44;21.50;99.90
25652;DHT22;13508;50.734;4.232;2023-10-09T16:07:54;21.50;99.90
25652;DHT22;13508;50.734;4.232;2023-10-09T16:11:02;21.40;99.90
25652;DHT22;13508;50.734;4.232;2023-10-09T16:14:07;21.30;99.90
25652;DHT22;13508;50.734;4.232;2023-10-09T16:17:14;21.20;99.90
25652;DHT22;13508;50.734;4.232;2023-10-09T16:20:18;21.10;99.90
25652;DHT22;13508;50.734;4.232;2023-10-09T16:23:25;21.00;99.90
25652;DHT22;13508;50.734;4.232;2023-10-09T16:26:32;21.00;99.90
25652;DHT22;13508;50.734;4.232;2023-10-09T16:29:42;20.90;99.90
25652;DHT22;13508;50.734;4.232;2023-10-09T16:32:48;20.80;99.90
25652;DHT22;13508;50.734;4.232;2023-10-09T16:35:53;20.70;99.90
25652;DHT22;13508;50.734;4.232;2023-10-09T16:39:03;20.70;99.90
25652;DHT22;13508;50.734;4.232;2023-10-09T16:42:09;20.60;99.90
25652;DHT22;13508;50.734;4.232;2023-10-09T16:45:16;20.60;99.90
25652;DHT22;13508;50.734;4.232;2023-10-09T16:48:20;20.70;99.90
25652;DHT22;13508;50.734;4.232;2023-10-09T16:51:24;20.70;99.90
25652;DHT22;13508;50.734;4.232;2023-10-09T16:54:30;20.70;99.90
25652;DHT22;13508;50.734;4.232;2023-10-09T16:57:33;20.80;99.90
25652;DHT22;13508;50.734;4.232;2023-10-09T17:00:37;20.70;99.90
25652;DHT22;13508;50.734;4.232;2023-10-09T17:03:44;20.50;99.90
25652;DHT22;13508;50.734;4.232;2023-10-09T17:06:50;20.50;99.90
25652;DHT22;13508;50.734;4.232;2023-10-09T17:09:56;20.40;99.90
25652;DHT22;13508;50.734;4.232;2023-10-09T17:13:03;20.30;99.90
25652;DHT22;13508;50.734;4.232;2023-10-09T17:16:14;20.30;99.90
25652;DHT22;13508;50.734;4.232;2023-10-09T17:19:23;20.20;99.90
25652;DHT22;13508;50.734;4.232;2023-10-09T17:22:31;20.10;99.90
25652;DHT22;13508;50.734;4.232;2023-10-09T17:25:36;20.10;99.90
25652;DHT22;13508;50.734;4.232;2023-10-09T17:28:41;20.10;99.90
25652;DHT22;13508;50.734;4.232;2023-10-09T17:31:44;20.10;99.90
25652;DHT22;13508;50.734;4.232;2023-10-09T17:34:48;20.00;99.90
25652;DHT22;13508;50.734;4.232;2023-10-09T17:37:51;19.90;99.90
25652;DHT22;13508;50.734;4.232;2023-10-09T17:40:55;19.70;99.90
25652;DHT22;13508;50.734;4.232;2023-10-09T17:43:59;19.60;99.90
25652;DHT22;13508;50.734;4.232;2023-10-09T17:47:06;19.50;99.90
25652;DHT22;13508;50.734;4.232;2023-10-09T17:50:10;19.40;99.90
25652;DHT22;13508;50.734;4.232;2023-10-09T17:53:19;19.30;99.90
25652;DHT22;13508;50.734;4.232;2023-10-09T17:56:22;19.20;99.90
25652;DHT22;13508;50.734;4.232;2023-10-09T17:59:28;19.00;99.90
25652;DHT22;13508;50.734;4.232;2023-10-09T18:02:32;18.90;99.90
25652;DHT22;13508;50.734;4.232;2023-10-09T18:05:37;18.90;99.90
25652;DHT22;13508;50.734;4.232;2023-10-09T18:08:41;18.80;99.90
25652;DHT22;13508;50.734;4.232;2023-10-09T18:11:45;18.60;99.90
25652;DHT22;13508;50.734;4.232;2023-10-09T18:14:51;18.60;99.90
25652;DHT22;13508;50.734;4.232;2023-10-09T18:17:56;18.50;99.90
25652;DHT22;13508;50.734;4.232;2023-10-09T18:20:59;18.30;99.90
25652;DHT22;13508;50.734;4.232;2023-10-09T18:24:10;18.00;99.90
25652;DHT22;13508;50.734;4.232;2023-10-09T18:27:20;17.80;99.90
25652;DHT22;13508;50.734;4.232;2023-10-09T18:30:26;17.80;99.90
25652;DHT22;13508;50.734;4.232;2023-10-09T18:33:33;17.70;99.90
25652;DHT22;13508;50.734;4.232;2023-10-09T18:36:37;17.80;99.90
25652;DHT22;13508;50.734;4.232;2023-10-09T18:39:41;17.80;99.90
25652;DHT22;13508;50.734;4.232;2023-10-09T18:42:52;17.90;99.90
25652;DHT22;13508;50.734;4.232;2023-10-09T18:45:55;17.90;99.90
25652;DHT22;13508;50.734;4.232;2023-10-09T18:49:00;17.70;99.90
25652;DHT22;13508;50.734;4.232;2023-10-09T18:52:09;17.60;99.90
25652;DHT22;13508;50.734;4.232;2023-10-09T18:55:13;17.70;99.90
25652;DHT22;13508;50.734;4.232;2023-10-09T18:58:17;17.80;99.90
25652;DHT22;13508;50.734;4.232;2023-10-09T19:01:21;17.70;99.90
25652;DHT22;13508;50.734;4.232;2023-10-09T19:04:25;17.60;99.90
25652;DHT22;13508;50.734;4.232;2023-10-09T19:07:29;17.50;99.90
25652;DHT22;13508;50.734;4.232;2023-10-09T19:10:33;17.50;99.90
25652;DHT22;13508;50.734;4.232;2023-10-09T19:13:39;17.40;99.90
25652;DHT22;13508;50.734;4.232;2023-10-09T19:16:42;17.30;99.90
25652;DHT22;13508;50.734;4.232;2023-10-09T19:19:46;17.30;99.90
25652;DHT22;13508;50.734;4.232;2023-10-09T19:22:52;17.40;99.90
25652;DHT22;13508;50.734;4.232;2023-10-09T19:25:56;17.30;99.90
25652;DHT22;13508;50.734;4.232;2023-10-09T19:29:00;17.20;99.90
25652;DHT22;13508;50.734;4.232;2023-10-09T19:32:06;17.00;99.90
25652;DHT22;13508;50.734;4.232;2023-10-09T19:35:11;17.00;99.90
25652;DHT22;13508;50.734;4.232;2023-10-09T19:38:14;17.00;99.90
25652;DHT22;13508;50.734;4.232;2023-10-09T19:41:20;16.80;99.90
25652;DHT22;13508;50.734;4.232;2023-10-09T19:44:32;16.70;99.90
25652;DHT22;13508;50.734;4.232;2023-10-09T19:47:38;16.60;99.90
25652;DHT22;13508;50.734;4.232;2023-10-09T19:50:42;16.60;99.90
25652;DHT22;13508;50.734;4.232;2023-10-09T19:53:46;16.50;99.90
25652;DHT22;13508;50.734;4.232;2023-10-09T19:56:50;16.40;99.90
25652;DHT22;13508;50.734;4.232;2023-10-09T19:59:55;16.40;99.90
25652;DHT22;13508;50.734;4.232;2023-10-09T20:02:59;16.40;99.90
25652;DHT22;13508;50.734;4.232;2023-10-09T20:06:04;16.20;99.90